Time;durP1;ratioP1;P1;durP2;ratioP2;P2;SDS_P1;SDS_P2;PMS_P1;PMS_P2;Temp;Humidity;BMP_temperature;BMP_pressure;BME280_temperature;BME280_humidity;BME280_pressure;Samples;Min_cycle;Max_cycle;Signal;HPM_P1;HPM_P2
2022/04/22 00:01:55;;;;;;;11.13;6.13;;;;;;;7.13;61.15;99864.88;5042650;28;20045;-46
2022/04/22 00:04:21;;;;;;;8.15;5.43;;;;;;;7.13;59.99;99870.03;5041853;28;21714;-45
2022/04/22 00:06:48;;;;;;;9.55;6.25;;;;;;;7.12;61.73;99865.72;5046537;28;20496;-41
2022/04/22 00:09:15;;;;;;;8.85;5.32;;;;;;;7.11;61.35;99858.88;5043412;28;20110;-39
2022/04/22 00:11:41;;;;;;;9.65;5.95;;;;;;;7.12;60.70;99850.28;5044138;28;20084;-42
2022/04/22 00:14:08;;;;;;;9.80;4.88;;;;;;;7.09;61.64;99854.56;5044255;28;20080;-46
2022/04/22 00:16:35;;;;;;;11.05;7.20;;;;;;;7.07;60.86;99857.13;5046128;28;20049;-54
2022/04/22 00:19:01;;;;;;;10.43;4.97;;;;;;;7.04;61.96;99857.09;5047262;28;20107;-39
2022/04/22 00:21:28;;;;;;;13.18;6.53;;;;;;;7.07;60.33;99851.97;5043033;28;20098;-46
2022/04/22 00:23:55;;;;;;;14.45;6.10;;;;;;;7.06;61.16;99851.09;5044315;28;20084;-46
2022/04/22 00:26:22;;;;;;;11.65;6.00;;;;;;;7.06;60.91;99855.41;5043583;28;20114;-43
2022/04/22 00:28:49;;;;;;;13.57;6.50;;;;;;;7.05;60.73;99848.50;5045989;28;20052;-48
2022/04/22 00:31:15;;;;;;;11.15;6.13;;;;;;;7.03;61.13;99848.47;5045764;28;20415;-43
2022/04/22 00:33:42;;;;;;;12.75;6.05;;;;;;;7.03;61.98;99845.06;5045847;28;20542;-45
2022/04/22 00:36:09;;;;;;;12.30;6.20;;;;;;;7.03;62.29;99840.75;5040230;28;20087;-49
2022/04/22 00:38:36;;;;;;;9.77;6.05;;;;;;;7.04;62.74;99842.50;5045423;28;20045;-49
2022/04/22 00:41:02;;;;;;;8.70;5.40;;;;;;;7.01;62.14;99842.47;5031904;28;20049;-49
2022/04/22 00:43:41;;;;;;;12.88;6.70;;;;;;;7.02;61.73;99840.75;5044360;28;20098;-42
2022/04/22 00:46:07;;;;;;;11.63;6.93;;;;;;;7.05;61.05;99833.03;5029322;28;20057;-47
2022/04/22 00:48:34;;;;;;;12.02;6.22;;;;;;;7.05;62.00;99828.78;5044875;28;20056;-43
2022/04/22 00:51:03;;;;;;;12.13;6.93;;;;;;;7.09;62.51;99824.50;5043077;28;20110;-51
2022/04/22 00:53:31;;;;;;;13.13;7.00;;;;;;;7.10;61.56;99820.22;5045617;28;20052;-45
2022/04/22 00:55:58;;;;;;;13.88;7.15;;;;;;;7.10;61.08;99826.25;5044874;28;20041;-41
2022/04/22 00:58:25;;;;;;;11.52;7.00;;;;;;;7.11;61.59;99820.22;5043465;28;20095;-47
2022/04/22 01:00:52;;;;;;;12.35;6.13;;;;;;;7.10;62.65;99818.50;5044708;28;20095;-42
2022/04/22 01:03:36;;;;;;;16.73;7.28;;;;;;;7.11;62.63;99817.66;5043736;28;20614;-46
2022/04/22 01:11:37;;;;;;;15.75;8.05;;;;;;;7.15;62.12;99813.38;5039929;28;20044;-43
2022/04/22 01:14:07;;;;;;;14.05;6.55;;;;;;;7.18;61.91;99810.84;5045808;28;20068;-40
2022/04/22 01:16:34;;;;;;;14.60;7.85;;;;;;;7.18;61.08;99808.25;5048242;28;20103;-52
2022/04/22 01:19:01;;;;;;;16.17;7.60;;;;;;;7.19;61.78;99804.81;5044270;28;20746;-49
2022/04/22 01:21:27;;;;;;;12.70;7.53;;;;;;;7.18;63.00;99814.28;5044526;28;20049;-46
2022/04/22 01:23:54;;;;;;;15.55;8.48;;;;;;;7.18;64.13;99806.56;5044890;28;20446;-44
2022/04/22 01:26:20;;;;;;;18.02;8.55;;;;;;;7.20;63.12;99804.84;5043504;28;20053;-47
2022/04/22 01:28:47;;;;;;;18.20;9.10;;;;;;;7.28;63.39;99804.03;5046434;28;20053;-43
2022/04/22 01:31:14;;;;;;;16.42;9.07;;;;;;;7.28;63.07;99801.44;5045925;28;24470;-45
2022/04/22 01:33:41;;;;;;;21.10;9.02;;;;;;;7.28;62.60;99798.88;5049242;28;20079;-43
2022/04/22 01:36:08;;;;;;;18.60;9.35;;;;;;;7.29;63.64;99792.88;5047834;28;20076;-42
2022/04/22 01:38:35;;;;;;;16.08;8.70;;;;;;;7.30;64.30;99797.19;5045248;28;20135;-42
2022/04/22 01:41:02;;;;;;;18.08;8.68;;;;;;;7.27;64.75;99786.84;5047611;28;20106;-44
2022/04/22 01:43:29;;;;;;;16.23;9.13;;;;;;;7.23;65.71;99792.84;5050191;28;20476;-46
2022/04/22 01:45:55;;;;;;;14.63;9.05;;;;;;;7.24;66.57;99799.72;5047589;28;20114;-51
2022/04/22 01:48:22;;;;;;;19.13;10.18;;;;;;;7.20;66.71;99786.81;5048626;28;20076;-43
2022/04/22 01:50:49;;;;;;;15.02;8.25;;;;;;;7.23;65.38;99795.41;5045308;28;20049;-39
2022/04/22 01:53:15;;;;;;;16.67;9.00;;;;;;;7.22;65.18;99788.53;5045339;28;20049;-44
2022/04/22 01:55:42;;;;;;;17.85;10.25;;;;;;;7.18;65.28;99783.38;5049553;28;20052;-43
2022/04/22 01:58:08;;;;;;;19.90;10.43;;;;;;;7.18;65.58;99785.94;5049745;28;20076;-41
2022/04/22 02:00:35;;;;;;;14.63;8.93;;;;;;;7.19;67.32;99779.06;5048397;28;20079;-48
2022/04/22 02:03:02;;;;;;;18.00;9.75;;;;;;;7.15;66.86;99780.75;5048334;28;20045;-48
2022/04/22 02:05:29;;;;;;;20.92;10.88;;;;;;;7.19;65.09;99782.50;5048642;28;20049;-44
2022/04/22 02:07:56;;;;;;;23.38;11.05;;;;;;;7.17;65.62;99766.16;5044966;28;20389;-41
2022/04/22 02:10:22;;;;;;;22.42;11.30;;;;;;;7.13;66.61;99759.28;5047226;28;20049;-45
2022/04/22 02:12:49;;;;;;;21.08;10.25;;;;;;;7.15;65.32;99755.00;5047412;28;20114;-49
2022/04/22 02:15:18;;;;;;;21.88;11.68;;;;;;;7.14;65.93;99755.88;5046785;28;20060;-43
2022/04/22 02:17:45;;;;;;;23.40;11.15;;;;;;;7.12;65.90;99757.56;5049961;28;20072;-45
2022/04/22 02:20:12;;;;;;;23.80;11.73;;;;;;;7.13;66.40;99758.44;5046529;28;20047;-48
2022/04/22 02:22:39;;;;;;;19.70;11.10;;;;;;;7.14;66.65;99760.16;5025771;28;20122;-47
2022/04/22 02:25:07;;;;;;;24.15;11.93;;;;;;;7.14;66.51;99760.16;5048754;28;20131;-42
2022/04/22 02:30:20;;;;;;;25.80;12.43;;;;;;;7.10;66.22;99754.13;5036141;28;20045;-41
2022/04/22 02:32:47;;;;;;;21.75;11.20;;;;;;;7.05;66.49;99746.38;5047722;28;20725;-45
2022/04/22 02:35:13;;;;;;;25.42;12.82;;;;;;;7.07;66.11;99738.66;5045126;28;20091;-45
2022/04/22 02:37:40;;;;;;;24.90;11.27;;;;;;;7.05;66.37;99732.59;5046798;28;20071;-45
2022/04/22 02:40:08;;;;;;;27.60;11.50;;;;;;;7.05;67.76;99730.91;5049604;28;20068;-43
2022/04/22 02:45:28;;;;;;;26.48;13.55;;;;;;;7.01;66.93;99742.03;5034057;28;20048;-44
2022/04/22 02:47:56;;;;;;;22.55;11.75;;;;;;;6.99;68.30;99737.75;5047507;28;20053;-46
2022/04/22 02:50:23;;;;;;;28.40;12.82;;;;;;;7.01;68.96;99746.31;5035477;28;20049;-44
2022/04/22 02:52:50;;;;;;;27.10;12.48;;;;;;;6.99;68.23;99750.63;5029530;28;20484;-40
2022/04/22 02:55:16;;;;;;;27.48;14.13;;;;;;;7.02;67.03;99740.31;5048268;28;20095;-42
2022/04/22 02:57:44;;;;;;;24.95;12.13;;;;;;;7.03;68.65;99742.06;5046592;28;20098;-43
2022/04/22 03:00:13;;;;;;;27.08;13.05;;;;;;;7.05;68.14;99740.34;5030443;28;20076;-42
2022/04/22 03:02:42;;;;;;;26.50;11.80;;;;;;;7.04;69.29;99736.91;5046388;28;20049;-42
2022/04/22 03:05:10;;;;;;;30.50;13.90;;;;;;;7.08;68.80;99730.06;5049207;28;20080;-45
2022/04/22 03:07:38;;;;;;;24.38;11.52;;;;;;;7.09;69.35;99721.47;5046048;28;20044;-45
2022/04/22 03:10:05;;;;;;;27.55;13.23;;;;;;;7.09;69.24;99721.47;5044754;28;20056;-41
2022/04/22 03:12:34;;;;;;;22.55;11.77;;;;;;;7.13;70.05;99723.22;5011196;28;20044;-44
2022/04/22 03:15:01;;;;;;;27.38;12.20;;;;;;;7.17;69.02;99714.66;5047545;28;20476;-47
2022/04/22 03:17:28;;;;;;;28.90;13.48;;;;;;;7.23;68.11;99715.56;5047371;28;20089;-46
2022/04/22 03:19:55;;;;;;;26.48;13.15;;;;;;;7.26;69.24;99718.16;5047633;28;20103;-45
2022/04/22 03:22:22;;;;;;;28.33;13.43;;;;;;;7.28;69.46;99719.00;5044439;28;20049;-44
2022/04/22 03:24:48;;;;;;;27.35;12.85;;;;;;;7.30;68.69;99704.44;5046104;28;20498;-43
2022/04/22 03:27:15;;;;;;;22.15;11.73;;;;;;;7.28;70.02;99700.97;5045802;28;20080;-44
2022/04/22 03:29:42;;;;;;;26.15;12.27;;;;;;;7.33;68.26;99701.88;5045023;28;20041;-50
2022/04/22 03:32:11;;;;;;;24.02;11.73;;;;;;;7.33;70.25;99699.31;5046498;28;20175;-47
2022/04/22 03:34:37;;;;;;;28.42;11.98;;;;;;;7.36;69.18;99698.47;5026612;28;20049;-43
2022/04/22 03:37:05;;;;;;;23.52;10.07;;;;;;;7.35;69.43;99695.00;5045812;28;20049;-47
2022/04/22 03:39:32;;;;;;;28.23;9.02;;;;;;;7.36;70.69;99699.28;5027996;28;20443;-47
2022/04/22 03:41:59;;;;;;;20.60;10.25;;;;;;;7.37;70.47;99690.75;5038944;28;20534;-47
2022/04/22 03:44:26;;;;;;;20.65;10.68;;;;;;;7.38;71.83;99691.59;5045144;28;20079;-43
2022/04/22 03:46:53;;;;;;;23.50;10.93;;;;;;;7.42;69.58;99691.59;5044763;28;20041;-44
2022/04/22 03:49:20;;;;;;;21.42;10.50;;;;;;;7.44;71.69;99686.47;5045411;28;20102;-48
2022/04/22 03:51:47;;;;;;;22.05;11.25;;;;;;;7.40;70.80;99683.00;5045884;28;20122;-40
2022/04/22 03:54:18;;;;;;;24.10;10.77;;;;;;;7.43;71.68;99680.44;5046253;28;20043;-46
2022/04/22 03:59:32;;;;;;;24.90;11.00;;;;;;;7.45;72.00;99673.59;5047493;28;20133;-48
2022/04/22 04:01:58;;;;;;;22.35;10.32;;;;;;;7.47;70.47;99676.19;5040124;28;20515;-43
2022/04/22 04:04:25;;;;;;;19.40;10.13;;;;;;;7.50;70.94;99672.75;5046233;28;20052;-48
2022/04/22 04:06:51;;;;;;;19.25;10.77;;;;;;;7.53;70.25;99667.59;5043251;28;20037;-51
2022/04/22 04:17:38;;;;;;;24.50;9.93;;;;;;;7.55;71.42;99679.63;5045601;28;20099;-46
2022/04/22 04:25:39;;;;;;;26.02;10.25;;;;;;;7.63;71.67;99674.50;5043721;28;20111;-40
2022/04/22 04:28:09;;;;;;;18.70;9.48;;;;;;;7.62;70.80;99675.38;5046286;28;20063;-44
2022/04/22 04:30:39;;;;;;;20.70;9.55;;;;;;;7.67;71.77;99673.66;5047415;28;20044;-42
2022/04/22 04:33:07;;;;;;;18.67;8.77;;;;;;;7.65;71.37;99670.22;5045532;28;20056;-48
2022/04/22 04:35:35;;;;;;;21.35;10.35;;;;;;;7.66;70.88;99664.19;5046057;28;20068;-47
2022/04/22 04:38:02;;;;;;;23.35;10.13;;;;;;;7.70;70.44;99668.50;5045599;28;20412;-46
2022/04/22 04:40:29;;;;;;;17.35;8.95;;;;;;;7.73;71.05;99662.50;5029433;28;20055;-45
2022/04/22 04:42:56;;;;;;;18.98;8.98;;;;;;;7.76;70.49;99661.63;5037810;28;20044;-47
2022/04/22 04:45:22;;;;;;;16.70;8.57;;;;;;;7.78;70.54;99660.81;5047839;28;20504;-40
2022/04/22 04:47:49;;;;;;;17.60;8.27;;;;;;;7.79;71.37;99659.94;5045649;28;20393;-48
2022/04/22 04:50:16;;;;;;;21.98;8.85;;;;;;;7.80;71.16;99658.25;5029005;28;20488;-42
2022/04/22 04:52:42;;;;;;;20.50;7.05;;;;;;;7.84;70.73;99654.81;5045501;28;21575;-44
2022/04/22 04:55:11;;;;;;;16.42;8.07;;;;;;;7.82;72.34;99659.09;5047533;28;20075;-44
2022/04/22 04:57:38;;;;;;;16.40;9.20;;;;;;;7.80;71.19;99658.25;5041567;28;21514;-44
2022/04/22 05:00:06;;;;;;;19.70;9.02;;;;;;;7.84;70.56;99660.81;5045823;28;20142;-43
2022/04/22 05:02:33;;;;;;;15.65;8.65;;;;;;;7.88;70.76;99656.53;5045816;28;20090;-43
2022/04/22 05:04:59;;;;;;;14.82;7.40;;;;;;;7.90;71.11;99652.22;5044745;28;20064;-44
2022/04/22 05:07:26;;;;;;;16.98;7.53;;;;;;;7.88;72.35;99651.38;5048271;28;20049;-47
2022/04/22 05:09:53;;;;;;;20.38;8.55;;;;;;;7.92;71.44;99653.09;5051960;28;20069;-41
2022/04/22 05:12:20;;;;;;;23.17;8.55;;;;;;;7.96;70.47;99654.81;5031224;28;20045;-43
2022/04/22 05:14:46;;;;;;;22.27;8.25;;;;;;;7.98;71.80;99647.94;5050236;28;20052;-43
2022/04/22 05:17:13;;;;;;;19.13;7.82;;;;;;;8.01;70.86;99648.81;5050540;28;20480;-44
2022/04/22 05:19:40;;;;;;;14.13;7.35;;;;;;;8.01;71.38;99647.09;5050773;28;20114;-45
2022/04/22 05:22:07;;;;;;;19.42;9.35;;;;;;;8.04;69.99;99643.66;5042410;28;20080;-43
2022/04/22 05:24:35;;;;;;;16.08;8.57;;;;;;;8.06;71.37;99639.34;5052567;28;20053;-45
2022/04/22 05:27:03;;;;;;;18.30;7.88;;;;;;;8.08;70.76;99638.47;5047933;28;20052;-49
2022/04/22 05:35:05;;;;;;;20.05;7.90;;;;;;;8.12;71.48;99649.69;5041032;28;20095;-41
2022/04/22 05:40:27;;;;;;;17.33;6.40;;;;;;;8.14;70.72;99645.38;5102349;27;20120;-48
2022/04/22 05:42:55;;;;;;;13.85;5.18;;;;;;;8.16;71.53;99643.66;5116395;28;20423;-42
2022/04/22 05:45:23;;;;;;;18.20;6.35;;;;;;;8.18;71.24;99644.50;5121756;28;20070;-42
2022/04/22 05:47:51;;;;;;;15.45;5.47;;;;;;;8.22;71.64;99645.38;5100052;28;20100;-39
2022/04/22 05:50:20;;;;;;;11.80;4.28;;;;;;;8.21;71.86;99648.84;5120647;28;20513;-45
2022/04/22 05:52:48;;;;;;;13.02;5.60;;;;;;;8.22;71.28;99643.69;5116412;28;20048;-43
2022/04/22 05:55:18;;;;;;;18.58;5.55;;;;;;;8.25;71.09;99650.56;5121404;28;20104;-46
2022/04/22 05:57:47;;;;;;;17.52;6.38;;;;;;;8.26;71.52;99641.06;5121132;28;20413;-46
2022/04/22 06:00:25;;;;;;;15.93;5.38;;;;;;;8.28;70.78;99644.53;5103536;28;20040;-42
2022/04/22 06:02:54;;;;;;;14.77;6.22;;;;;;;8.29;71.20;99641.09;5106678;28;20047;-43
2022/04/22 06:05:22;;;;;;;18.50;6.65;;;;;;;8.34;71.31;99640.22;5118411;28;20048;-46
2022/04/22 06:10:31;;;;;;;18.75;7.15;;;;;;;8.36;70.93;99642.81;5102783;28;20074;-43
2022/04/22 06:10:38;;;;;;;15.82;5.75;;;;;;;8.36;72.21;99646.25;5105602;28;20044;-50
2022/04/22 06:13:06;;;;;;;16.67;6.38;;;;;;;8.42;71.27;99650.56;5124817;28;20059;-42
2022/04/22 06:15:33;;;;;;;10.48;5.13;;;;;;;8.43;71.06;99644.53;5118367;28;20054;-48
2022/04/22 06:18:01;;;;;;;18.63;6.10;;;;;;;8.47;70.69;99641.09;5118934;28;20046;-50
2022/04/22 06:20:29;;;;;;;14.63;5.80;;;;;;;8.49;71.48;99639.34;5119074;28;20052;-46
2022/04/22 06:22:56;;;;;;;18.80;6.10;;;;;;;8.54;71.85;99636.81;5123545;28;20509;-49
2022/04/22 06:25:23;;;;;;;11.98;4.88;;;;;;;8.59;72.27;99634.22;5104880;28;20088;-50
2022/04/22 06:27:51;;;;;;;15.77;5.00;;;;;;;8.63;71.42;99629.91;5104419;28;20043;-41
2022/04/22 06:30:22;;;;;;;11.02;4.65;;;;;;;8.65;72.09;99633.34;5086078;28;20054;-45
2022/04/22 06:32:50;;;;;;;14.20;6.18;;;;;;;8.67;70.90;99635.06;5118491;28;20055;-47
2022/04/22 06:35:18;;;;;;;14.77;5.40;;;;;;;8.69;72.19;99632.50;5105345;28;20051;-46
2022/04/22 06:37:47;;;;;;;16.25;5.60;;;;;;;8.72;70.81;99630.75;5119148;28;20061;-47
2022/04/22 06:45:50;;;;;;;12.93;4.90;;;;;;;8.93;70.88;99634.16;5103630;28;20047;-40
2022/04/22 06:50:56;;;;;;;12.23;5.03;;;;;;;9.17;71.06;99634.94;5060395;27;20138;-41
2022/04/22 06:53:23;;;;;;;13.48;5.78;;;;;;;9.20;71.18;99632.34;5035471;28;20061;-42
2022/04/22 06:55:52;;;;;;;21.00;6.00;;;;;;;9.26;70.74;99637.47;5022171;28;20110;-46
2022/04/22 06:58:20;;;;;;;14.45;5.60;;;;;;;9.33;69.65;99642.63;5034497;28;20052;-42
2022/04/22 07:00:48;;;;;;;18.27;6.57;;;;;;;9.36;70.35;99637.47;5034951;28;20069;-49
2022/04/22 07:03:16;;;;;;;14.10;5.10;;;;;;;9.38;70.07;99633.13;5000767;28;20049;-43
2022/04/22 07:05:47;;;;;;;12.52;4.60;;;;;;;9.40;69.99;99623.66;5015352;28;20042;-44
2022/04/22 07:08:17;;;;;;;19.17;6.95;;;;;;;9.46;69.58;99628.78;5014841;28;20493;-42
2022/04/22 07:10:45;;;;;;;15.10;6.05;;;;;;;9.55;69.66;99632.22;5029411;28;20073;-43
2022/04/22 07:13:12;;;;;;;14.65;5.90;;;;;;;9.61;69.80;99632.16;5032332;28;20068;-48
2022/04/22 07:15:39;;;;;;;16.60;6.50;;;;;;;9.71;69.44;99631.25;5034206;28;20045;-46
2022/04/22 07:18:07;;;;;;;19.92;6.55;;;;;;;9.81;69.62;99629.47;5035801;28;20508;-43
2022/04/22 07:20:34;;;;;;;19.85;5.95;;;;;;;9.90;68.77;99628.56;5033307;28;20108;-46
2022/04/22 07:23:01;;;;;;;11.95;5.35;;;;;;;9.97;69.18;99635.38;5032747;28;20050;-51
2022/04/22 07:25:28;;;;;;;18.13;5.70;;;;;;;10.00;68.48;99624.16;5038738;28;20185;-40
2022/04/22 07:27:56;;;;;;;14.68;5.57;;;;;;;10.06;68.32;99628.44;5032382;28;20119;-43
2022/04/22 07:30:23;;;;;;;14.70;5.55;;;;;;;10.11;68.38;99632.72;5028773;28;20068;-45
2022/04/22 07:32:51;;;;;;;15.45;5.40;;;;;;;10.15;68.37;99629.22;5033205;28;20140;-41
2022/04/22 07:35:20;;;;;;;15.20;5.35;;;;;;;10.23;68.42;99629.16;5030018;28;20053;-47
2022/04/22 07:37:50;;;;;;;18.55;6.13;;;;;;;10.31;68.55;99631.69;5015109;28;20045;-48
2022/04/22 07:40:20;;;;;;;15.43;5.05;;;;;;;10.39;67.82;99622.13;5019019;28;20549;-45
2022/04/22 07:48:38;;;;;;;17.42;4.82;;;;;;;10.62;67.97;99631.44;5022876;28;20049;-48
2022/04/22 07:51:04;;;;;;;14.68;5.32;;;;;;;10.72;67.50;99629.63;5028879;28;20054;-41
2022/04/22 07:53:31;;;;;;;14.82;4.93;;;;;;;10.80;66.92;99627.81;5013051;28;20049;-47
2022/04/22 07:55:58;;;;;;;14.00;5.43;;;;;;;10.85;66.71;99625.19;5038373;28;20076;-53
2022/04/22 07:58:24;;;;;;;17.17;5.53;;;;;;;10.80;66.56;99633.00;5031661;28;20103;-43
2022/04/22 08:00:51;;;;;;;13.73;5.07;;;;;;;10.79;67.29;99631.28;5022267;28;20069;-42
2022/04/22 08:03:17;;;;;;;16.17;5.95;;;;;;;10.82;66.79;99634.69;5020840;28;20072;-47
2022/04/22 08:05:44;;;;;;;12.70;6.13;;;;;;;10.80;66.62;99622.63;5015637;28;20870;-39
2022/04/22 08:08:10;;;;;;;14.02;5.45;;;;;;;10.83;66.80;99651.94;5018518;28;20493;-43
2022/04/22 08:10:38;;;;;;;15.75;6.13;;;;;;;10.83;66.18;99626.91;5020516;28;20073;-40
2022/04/22 08:13:05;;;;;;;11.02;5.32;;;;;;;10.84;66.55;99628.63;5018529;28;20520;-44
2022/04/22 08:15:33;;;;;;;19.98;6.55;;;;;;;10.89;66.86;99626.00;5021048;28;20103;-42
2022/04/22 08:18:02;;;;;;;14.38;6.57;;;;;;;10.91;67.06;99632.88;4998755;28;20050;-47
2022/04/22 08:20:31;;;;;;;16.15;5.63;;;;;;;11.01;66.53;99631.03;5015483;28;20084;-48
2022/04/22 08:22:59;;;;;;;14.63;6.43;;;;;;;11.10;66.23;99629.19;4993170;28;20128;-50
2022/04/22 08:25:26;;;;;;;17.45;6.18;;;;;;;11.12;65.88;99632.66;5017296;28;20045;-46
2022/04/22 08:27:53;;;;;;;15.73;6.45;;;;;;;11.21;66.36;99632.53;5015712;28;20453;-46
2022/04/22 08:30:20;;;;;;;13.77;6.15;;;;;;;11.30;66.24;99623.78;5001000;28;20049;-46
2022/04/22 08:32:46;;;;;;;17.00;6.60;;;;;;;11.38;66.23;99621.94;4985658;28;20084;-51
2022/04/22 08:35:13;;;;;;;15.57;5.90;;;;;;;11.40;65.81;99620.22;5017983;28;20485;-49
2022/04/22 08:37:44;;;;;;;14.18;6.95;;;;;;;11.39;64.81;99620.22;5014434;28;20108;-45
2022/04/22 08:40:12;;;;;;;11.85;5.40;;;;;;;11.37;65.07;99622.84;5013427;28;20050;-49
2022/04/22 08:42:40;;;;;;;15.80;6.30;;;;;;;11.42;65.58;99610.66;5023093;28;20057;-41
2022/04/22 08:45:07;;;;;;;11.93;5.05;;;;;;;11.47;65.08;99615.78;4999134;28;20056;-44
2022/04/22 08:50:26;;;;;;;12.40;5.47;;;;;;;11.42;64.86;99621.03;5009837;28;20050;-44
2022/04/22 08:52:56;;;;;;;13.52;4.93;;;;;;;11.45;65.49;99625.31;5004069;28;20465;-45
2022/04/22 08:55:25;;;;;;;11.55;4.50;;;;;;;11.52;65.04;99613.97;5003599;28;20057;-40
2022/04/22 08:57:54;;;;;;;16.50;5.47;;;;;;;11.57;65.01;99629.50;5022078;28;20119;-49
2022/04/22 09:00:22;;;;;;;14.23;5.80;;;;;;;11.65;64.25;99622.47;5019600;28;20103;-49
2022/04/22 09:02:50;;;;;;;19.15;6.05;;;;;;;11.77;64.74;99621.44;5021178;28;20068;-50
2022/04/22 09:05:16;;;;;;;14.98;5.63;;;;;;;11.88;64.89;99608.28;5022854;28;20066;-40
2022/04/22 09:07:44;;;;;;;13.40;5.78;;;;;;;12.01;64.66;99608.97;5024020;28;20100;-46
2022/04/22 09:10:11;;;;;;;12.20;4.63;;;;;;;12.17;64.95;99608.75;5021448;28;20054;-50
2022/04/22 09:12:57;;;;;;;19.45;5.88;;;;;;;12.31;63.96;99606.78;5016454;28;20045;-49
2022/04/22 09:15:26;;;;;;;9.38;4.97;;;;;;;12.36;63.95;99598.06;5002279;28;20058;-44
2022/04/22 09:17:57;;;;;;;15.77;5.30;;;;;;;12.38;62.57;99601.47;4998463;28;20054;-45
2022/04/22 09:20:30;;;;;;;16.10;5.53;;;;;;;12.36;63.31;99603.25;5017638;28;20053;-47
2022/04/22 09:22:57;;;;;;;16.63;5.53;;;;;;;12.34;62.55;99606.72;5020141;28;20053;-45
2022/04/22 09:25:25;;;;;;;16.33;5.25;;;;;;;12.39;63.28;99598.00;5005813;28;20068;-46
2022/04/22 09:27:52;;;;;;;10.45;4.60;;;;;;;12.47;63.25;99601.31;5019356;28;20056;-46
2022/04/22 09:30:30;;;;;;;12.20;4.75;;;;;;;12.56;63.16;99590.75;5024629;28;20049;-48
2022/04/22 09:32:57;;;;;;;16.60;5.90;;;;;;;12.63;62.69;99596.69;5022904;28;20050;-46
2022/04/22 09:35:26;;;;;;;15.95;4.82;;;;;;;12.71;62.62;99588.78;5024126;28;20042;-42
2022/04/22 09:43:32;;;;;;;;;;;;;;;12.65;61.96;99583.66;5004221;28;20053;-41
2022/04/22 09:45:59;;;;;;;11.23;4.45;;;;;;;12.68;61.98;99584.50;5021917;28;19925;-42
2022/04/22 09:48:26;;;;;;;15.75;5.47;;;;;;;12.70;61.27;99581.88;5013796;28;20144;-44
2022/04/22 09:50:54;;;;;;;16.10;5.40;;;;;;;12.77;62.01;99575.63;5017552;28;20064;-47
2022/04/22 09:53:34;;;;;;;12.82;5.05;;;;;;;12.89;62.25;99576.28;5021354;28;20053;-43
2022/04/22 09:56:06;;;;;;;11.05;4.60;;;;;;;13.08;61.69;99582.81;5007329;28;20137;-46
2022/04/22 09:58:33;;;;;;;11.77;3.92;;;;;;;13.19;61.17;99577.41;5002647;28;20045;-47
2022/04/22 10:01:03;;;;;;;11.60;4.50;;;;;;;13.37;60.78;99580.50;4985809;28;20049;-46
2022/04/22 10:03:33;;;;;;;12.50;4.93;;;;;;;13.44;60.87;99563.88;5004320;28;20072;-48
2022/04/22 10:06:01;;;;;;;11.25;4.63;;;;;;;13.54;60.43;99574.94;5001306;28;20045;-50
2022/04/22 10:08:36;;;;;;;14.13;4.63;;;;;;;13.70;60.36;99566.78;4982297;28;20444;-42
2022/04/22 10:11:05;;;;;;;8.32;4.13;;;;;;;13.94;59.81;99557.53;5019273;28;20052;-43
2022/04/22 10:13:49;;;;;;;11.52;4.65;;;;;;;14.11;59.89;99559.72;5021577;28;20088;-42
2022/04/22 10:16:16;;;;;;;10.48;4.57;;;;;;;14.26;58.62;99552.41;5036292;28;20053;-51
2022/04/22 10:18:43;;;;;;;16.13;4.13;;;;;;;14.38;58.75;99554.69;5036023;28;20053;-46
2022/04/22 10:21:10;;;;;;;11.95;4.70;;;;;;;14.60;58.42;99550.66;5025676;28;20053;-47
2022/04/22 10:23:45;;;;;;;16.58;4.45;;;;;;;14.67;58.45;99552.22;5040228;28;20144;-46
2022/04/22 10:26:11;;;;;;;13.20;4.63;;;;;;;14.59;57.46;99544.59;5039110;28;20110;-45
2022/04/22 10:28:42;;;;;;;19.30;4.55;;;;;;;14.45;56.61;99541.53;5038342;28;20094;-44
2022/04/22 10:31:09;;;;;;;12.32;4.38;;;;;;;14.44;57.29;99539.78;5023217;28;20048;-45
2022/04/22 10:36:17;;;;;;;13.90;4.68;;;;;;;14.58;56.70;99532.47;5064937;27;20126;-42
2022/04/22 10:38:46;;;;;;;10.48;3.47;;;;;;;14.62;56.67;99526.25;5045453;28;20057;-43
2022/04/22 10:41:16;;;;;;;10.15;4.13;;;;;;;14.78;56.65;99525.84;5024642;28;20053;-47
2022/04/22 10:47:13;;;;;;;15.02;3.72;;;;;;;14.87;55.89;99528.22;5012497;28;20944;-50
2022/04/22 10:47:19;;;;;;;7.32;3.17;;;;;;;15.00;55.24;99525.25;5016654;28;20083;-50
2022/04/22 10:49:20;;;;;;;10.13;3.78;;;;;;;15.03;55.04;99519.94;5017182;28;20049;-42
2022/04/22 10:52:11;;;;;;;9.70;3.92;;;;;;;15.00;54.34;99522.63;5048184;28;20100;-46
2022/04/22 10:57:31;;;;;;;8.73;3.80;;;;;;;15.13;54.24;99513.53;5061267;27;20593;-50
2022/04/22 11:02:59;;;;;;;9.43;4.25;;;;;;;15.22;53.46;99527.19;5073511;27;20150;-41
2022/04/22 11:08:01;;;;;;;8.55;2.85;;;;;;;15.40;54.13;99518.81;5076465;27;20135;-44
2022/04/22 11:19:10;;;;;;;11.02;4.13;;;;;;;15.51;52.80;99522.84;5066454;27;20137;-46
2022/04/22 11:24:20;;;;;;;11.23;5.25;;;;;;;16.09;51.35;99523.59;5088718;27;20420;-42
2022/04/22 11:26:48;;;;;;;10.95;3.55;;;;;;;16.24;52.71;99523.06;5086777;28;20464;-45
2022/04/22 11:29:16;;;;;;;13.48;5.30;;;;;;;16.51;51.66;99525.63;5090270;28;20048;-45
2022/04/22 11:31:56;;;;;;;9.15;4.63;;;;;;;16.68;50.96;99527.63;5072571;28;20071;-43
2022/04/22 11:37:21;;;;;;;11.98;4.28;;;;;;;16.89;50.08;99519.88;5103034;27;20120;-41
2022/04/22 11:39:49;;;;;;;10.40;3.13;;;;;;;16.86;49.98;99520.03;5125276;27;20051;-44
2022/04/22 11:42:18;;;;;;;14.18;4.15;;;;;;;16.68;48.33;99522.41;5104152;28;20044;-49
2022/04/22 11:45:00;;;;;;;8.80;3.80;;;;;;;16.64;48.95;99525.19;5126322;27;20067;-46
2022/04/22 11:47:28;;;;;;;8.85;3.10;;;;;;;16.84;49.06;99527.06;5121925;27;20071;-48
2022/04/22 11:49:56;;;;;;;9.13;2.05;;;;;;;16.78;48.28;99512.44;5117247;27;20458;-42
2022/04/22 11:52:23;;;;;;;9.65;2.88;;;;;;;16.89;48.24;99513.81;5121673;28;20473;-47
2022/04/22 11:55:00;;;;;;;9.02;2.45;;;;;;;17.04;49.83;99513.25;5100287;28;20044;-43
2022/04/22 11:57:32;;;;;;;6.18;2.28;;;;;;;17.23;48.07;99517.81;5099575;28;20046;-42
2022/04/22 12:05:36;;;;;;;11.52;2.67;;;;;;;17.54;46.48;99513.09;5107767;28;20089;-46
2022/04/22 12:08:07;;;;;;;10.90;2.28;;;;;;;17.50;45.44;99519.38;5120645;28;20047;-47
2022/04/22 12:10:34;;;;;;;9.88;2.53;;;;;;;17.45;45.68;99524.78;5102406;28;20108;-48
2022/04/22 12:13:02;;;;;;;6.25;1.95;;;;;;;17.38;45.05;99515.47;5120426;28;20566;-47
2022/04/22 12:15:29;;;;;;;7.43;1.70;;;;;;;17.42;46.12;99506.59;5122294;28;20137;-45
2022/04/22 12:18:34;;;;;;;7.75;1.73;;;;;;;17.38;44.41;99505.88;5117435;28;20146;-44
2022/04/22 12:21:03;;;;;;;6.78;1.67;;;;;;;17.31;44.76;99504.41;5119457;28;20047;-42
2022/04/22 12:23:48;;;;;;;6.72;2.40;;;;;;;17.34;44.19;99504.28;5101118;28;20491;-44
2022/04/22 12:26:24;;;;;;;4.97;2.22;;;;;;;17.33;44.18;99497.34;5122316;28;20453;-41
2022/04/22 12:29:12;;;;;;;7.95;1.50;;;;;;;17.32;43.84;99488.63;5117903;28;20100;-50
2022/04/22 12:31:44;;;;;;;7.93;2.40;;;;;;;17.50;45.84;99495.81;5115370;28;20044;-48
2022/04/22 12:34:12;;;;;;;5.55;2.47;;;;;;;17.53;43.40;99480.00;5120394;28;20142;-47
2022/04/22 12:39:42;;;;;;;5.03;1.55;;;;;;;17.65;43.28;99484.72;5084833;27;20137;-47
2022/04/22 12:54:11;;;;;;;9.00;1.63;;;;;;;17.76;43.56;99481.63;5037979;28;20077;-46
2022/04/22 12:56:38;;;;;;;3.47;1.55;;;;;;;17.85;43.37;99472.56;5019654;28;20077;-49
2022/04/22 12:59:06;;;;;;;9.00;1.13;;;;;;;17.93;42.28;99480.09;5016101;28;20092;-47
2022/04/22 13:01:38;;;;;;;5.57;1.38;;;;;;;17.90;41.54;99477.59;5036424;28;20449;-47
2022/04/22 13:04:07;;;;;;;6.82;1.42;;;;;;;17.88;42.40;99477.66;5026015;28;20077;-47
2022/04/22 13:06:43;;;;;;;6.78;1.63;;;;;;;17.86;41.54;99469.00;5020815;28;20480;-42
2022/04/22 13:09:13;;;;;;;5.93;1.65;;;;;;;17.95;41.54;99476.50;5024328;28;20049;-46
2022/04/22 13:11:40;;;;;;;7.40;1.65;;;;;;;17.93;42.49;99475.69;5022490;28;20107;-44
2022/04/22 13:14:08;;;;;;;4.50;1.58;;;;;;;18.01;42.54;99475.38;5022322;28;20050;-43
2022/04/22 13:16:35;;;;;;;6.88;1.25;;;;;;;17.93;40.80;99480.94;5013588;28;20054;-45
2022/04/22 13:19:09;;;;;;;8.88;1.40;;;;;;;17.79;40.65;99472.78;5021447;28;20049;-44
2022/04/22 13:21:35;;;;;;;11.30;1.75;;;;;;;17.66;40.58;99462.00;5020563;28;20045;-51